Time;durP1;ratioP1;P1;durP2;ratioP2;P2;SDS_P1;SDS_P2;PMS_P1;PMS_P2;Temp;Humidity;BMP_temperature;BMP_pressure;BME280_temperature;BME280_humidity;BME280_pressure;Samples;Min_cycle;Max_cycle;Signal;HPM_P1;HPM_P2
2022/04/22 00:00:22;;;;;;;10.93;9.27;;;10.20;99.90;;;;;;5085391;28;20055;-42
2022/04/22 00:02:48;;;;;;;14.65;8.35;;;10.20;99.90;;;;;;5082006;28;20912;-46
2022/04/22 00:05:14;;;;;;;13.45;9.55;;;10.10;99.90;;;;;;5084808;28;20116;-43
2022/04/22 00:07:45;;;;;;;12.00;9.02;;;10.10;99.90;;;;;;5106337;28;20134;-49
2022/04/22 00:10:11;;;;;;;16.35;9.48;;;10.10;99.90;;;;;;5110908;27;20059;-46
2022/04/22 00:12:38;;;;;;;15.77;9.10;;;10.00;99.90;;;;;;5087798;28;20112;-42
2022/04/22 00:15:05;;;;;;;12.27;9.68;;;10.00;99.90;;;;;;5076793;28;20052;-44
2022/04/22 00:17:30;;;;;;;19.05;9.32;;;9.90;99.90;;;;;;5096751;28;20093;-44
2022/04/22 00:19:56;;;;;;;14.30;9.38;;;9.90;99.90;;;;;;5099447;28;20035;-43
2022/04/22 00:22:23;;;;;;;13.73;9.52;;;9.90;99.90;;;;;;5095484;28;20032;-45
2022/04/22 00:24:49;;;;;;;12.77;9.98;;;9.90;99.90;;;;;;5082357;28;20052;-44
2022/04/22 00:27:14;;;;;;;13.30;9.55;;;9.80;99.90;;;;;;5086137;28;20055;-46
2022/04/22 00:29:40;;;;;;;14.85;10.30;;;9.80;99.90;;;;;;5081257;28;20067;-43
2022/04/22 00:32:06;;;;;;;20.85;9.93;;;9.70;99.90;;;;;;5061451;28;20448;-43
2022/04/22 00:34:35;;;;;;;13.85;10.00;;;9.70;99.90;;;;;;5080635;28;20052;-43
2022/04/22 00:37:01;;;;;;;13.02;9.48;;;9.70;99.90;;;;;;5061482;28;20132;-44
2022/04/22 00:39:26;;;;;;;12.90;10.27;;;9.60;99.90;;;;;;5092808;28;20086;-43
2022/04/22 00:41:52;;;;;;;11.98;9.68;;;9.60;99.90;;;;;;5080000;28;20063;-46
2022/04/22 00:44:18;;;;;;;13.73;9.98;;;9.60;99.90;;;;;;5062232;28;20456;-43
2022/04/22 00:46:43;;;;;;;13.05;9.63;;;9.60;99.90;;;;;;5080592;28;20094;-43
2022/04/22 00:49:09;;;;;;;17.33;11.27;;;9.50;99.90;;;;;;5093376;28;20512;-45
2022/04/22 00:51:35;;;;;;;16.30;10.07;;;9.50;99.90;;;;;;5100407;28;20050;-43
2022/04/22 00:54:03;;;;;;;12.48;9.75;;;9.50;99.90;;;;;;5095715;28;20065;-44
2022/04/22 00:56:29;;;;;;;14.43;10.68;;;9.50;99.90;;;;;;5099874;28;20112;-42
2022/04/22 00:58:57;;;;;;;14.02;9.95;;;9.50;99.90;;;;;;5067910;28;20126;-42
2022/04/22 01:01:24;;;;;;;12.15;10.02;;;9.50;99.90;;;;;;5070560;28;20093;-42
2022/04/22 01:12:09;;;;;;;17.73;10.13;;;9.40;99.90;;;;;;5089757;28;20106;-46
2022/04/22 01:14:35;;;;;;;16.33;9.95;;;9.40;99.90;;;;;;5085386;28;20429;-43
2022/04/22 01:17:01;;;;;;;11.50;9.77;;;9.40;99.90;;;;;;5070268;28;20056;-44
2022/04/22 01:19:27;;;;;;;15.68;10.88;;;9.30;99.90;;;;;;5086864;28;20448;-46
2022/04/22 01:21:53;;;;;;;16.52;10.80;;;9.30;99.90;;;;;;5101073;28;20043;-43
2022/04/22 01:24:19;;;;;;;17.42;11.73;;;9.30;99.90;;;;;;5085272;28;20097;-46
2022/04/22 01:26:46;;;;;;;16.23;11.02;;;9.30;99.90;;;;;;5082642;28;20051;-46
2022/04/22 01:29:13;;;;;;;14.90;10.98;;;9.20;99.90;;;;;;5091078;28;20054;-43
2022/04/22 01:31:39;;;;;;;19.55;11.00;;;9.20;99.90;;;;;;5090886;28;20051;-42
2022/04/22 01:34:05;;;;;;;15.98;11.15;;;9.20;99.90;;;;;;5085805;28;20395;-45
2022/04/22 01:36:30;;;;;;;19.13;11.75;;;9.20;99.90;;;;;;5080205;28;20083;-45
2022/04/22 01:38:56;;;;;;;18.13;10.65;;;9.10;99.90;;;;;;5089196;28;20070;-45
2022/04/22 01:41:22;;;;;;;14.88;11.30;;;9.10;99.90;;;;;;5100224;28;20413;-43
2022/04/22 01:43:48;;;;;;;14.98;10.52;;;9.10;99.90;;;;;;5101340;28;20512;-43
2022/04/22 01:46:15;;;;;;;19.42;11.45;;;9.10;99.90;;;;;;5105082;28;20051;-43
2022/04/22 01:48:42;;;;;;;17.35;11.40;;;9.00;99.90;;;;;;5086579;28;20056;-44
2022/04/22 01:51:08;;;;;;;19.55;12.25;;;8.90;99.90;;;;;;5095192;28;20493;-46
2022/04/22 01:53:34;;;;;;;18.95;11.18;;;8.80;99.90;;;;;;5084324;28;20083;-42
2022/04/22 01:55:59;;;;;;;18.70;11.40;;;8.80;99.90;;;;;;5099655;28;20173;-43
2022/04/22 01:58:25;;;;;;;13.55;10.73;;;8.70;99.90;;;;;;5101602;28;20067;-44
2022/04/22 02:00:51;;;;;;;17.45;11.40;;;8.70;99.90;;;;;;5096548;28;20043;-43
2022/04/22 02:03:16;;;;;;;16.20;11.02;;;8.70;99.90;;;;;;5089218;28;20479;-42
2022/04/22 02:05:42;;;;;;;20.55;11.15;;;8.70;99.90;;;;;;5083641;28;20490;-44
2022/04/22 02:08:09;;;;;;;18.02;11.20;;;8.70;99.90;;;;;;5065144;28;20048;-43
2022/04/22 02:10:35;;;;;;;20.50;11.25;;;8.60;99.90;;;;;;5111397;27;20135;-44
2022/04/22 02:13:00;;;;;;;18.95;12.18;;;8.60;99.90;;;;;;5084156;28;20044;-43
2022/04/22 02:15:31;;;;;;;16.05;11.18;;;8.60;99.90;;;;;;5089104;28;20089;-43
2022/04/22 02:17:57;;;;;;;21.75;11.85;;;8.60;99.90;;;;;;5097794;28;20047;-43
2022/04/22 02:20:28;;;;;;;15.60;11.48;;;8.50;99.90;;;;;;5064955;28;20051;-43
2022/04/22 02:22:54;;;;;;;18.15;12.10;;;8.50;99.90;;;;;;5085273;28;20054;-44
2022/04/22 02:25:20;;;;;;;16.75;11.55;;;8.50;99.90;;;;;;5083788;28;20048;-43
2022/04/22 02:30:31;;;;;;;20.98;12.27;;;8.50;99.90;;;;;;5095522;28;20059;-42
2022/04/22 02:32:56;;;;;;;16.20;12.30;;;8.40;99.90;;;;;;5085140;28;20185;-46
2022/04/22 02:35:22;;;;;;;19.73;12.45;;;8.40;99.90;;;;;;5105004;28;20577;-43
2022/04/22 02:37:49;;;;;;;16.58;12.38;;;8.40;99.90;;;;;;5105727;28;20048;-44
2022/04/22 02:45:44;;;;;;;17.58;12.00;;;8.30;99.90;;;;;;5102850;28;20044;-43
2022/04/22 02:48:10;;;;;;;19.83;12.98;;;8.20;99.90;;;;;;5092508;28;20114;-42
2022/04/22 02:50:36;;;;;;;16.17;12.23;;;8.30;99.90;;;;;;5082653;28;20380;-43
2022/04/22 02:53:01;;;;;;;17.75;11.07;;;8.30;99.90;;;;;;5081879;28;20040;-45
2022/04/22 02:55:27;;;;;;;17.13;10.88;;;8.30;99.90;;;;;;5091893;28;20086;-42
2022/04/22 02:57:53;;;;;;;24.27;12.30;;;8.30;99.90;;;;;;5101543;28;20453;-42
2022/04/22 03:00:19;;;;;;;13.77;10.98;;;8.30;99.90;;;;;;5082672;28;20074;-45
2022/04/22 03:02:44;;;;;;;17.10;11.50;;;8.30;99.90;;;;;;5081809;28;20052;-44
2022/04/22 03:05:11;;;;;;;17.50;11.88;;;8.20;99.90;;;;;;5083802;28;20076;-44
2022/04/22 03:07:37;;;;;;;19.35;11.98;;;8.10;99.90;;;;;;5082316;28;20616;-43
2022/04/22 03:10:05;;;;;;;14.13;11.80;;;8.00;99.90;;;;;;5107614;27;20040;-42
2022/04/22 03:12:30;;;;;;;14.80;11.65;;;7.90;99.90;;;;;;5091004;28;20120;-42
2022/04/22 03:14:56;;;;;;;14.77;12.23;;;7.80;99.90;;;;;;5088340;28;20051;-44
2022/04/22 03:17:23;;;;;;;18.70;11.52;;;7.70;99.90;;;;;;5082357;28;20056;-44
2022/04/22 03:19:49;;;;;;;17.70;11.05;;;7.60;99.90;;;;;;5100887;28;20506;-41
2022/04/22 03:22:16;;;;;;;15.32;11.57;;;7.60;99.90;;;;;;5101842;28;20050;-43
2022/04/22 03:24:42;;;;;;;14.82;10.75;;;7.60;99.90;;;;;;5102535;28;20606;-44
2022/04/22 03:27:09;;;;;;;14.43;10.85;;;7.60;99.90;;;;;;5095261;28;20091;-43
2022/04/22 03:29:38;;;;;;;13.10;10.43;;;7.60;99.90;;;;;;5081914;28;20048;-45
2022/04/22 03:32:05;;;;;;;14.63;11.05;;;7.60;99.90;;;;;;5087141;28;20036;-43
2022/04/22 03:34:32;;;;;;;17.02;11.10;;;7.60;99.90;;;;;;5101759;28;20388;-46
2022/04/22 03:36:59;;;;;;;18.88;9.82;;;7.60;99.90;;;;;;5102825;28;20506;-43
2022/04/22 03:39:24;;;;;;;12.05;9.35;;;7.60;99.90;;;;;;5103673;28;20444;-45
2022/04/22 03:41:50;;;;;;;13.90;9.48;;;7.60;99.90;;;;;;5102955;28;20345;-43
2022/04/22 03:44:16;;;;;;;16.08;9.70;;;7.60;99.90;;;;;;5103531;28;20043;-42
2022/04/22 03:46:42;;;;;;;12.27;9.88;;;7.60;99.90;;;;;;5103457;28;20047;-44
2022/04/22 03:49:09;;;;;;;14.77;8.13;;;7.60;99.90;;;;;;5102559;28;20769;-42
2022/04/22 03:51:36;;;;;;;15.73;8.88;;;7.60;99.90;;;;;;5090366;28;20852;-42
2022/04/22 03:54:02;;;;;;;17.15;8.60;;;7.60;99.90;;;;;;5082920;28;20052;-45
2022/04/22 03:59:12;;;;;;;13.88;8.52;;;7.50;99.90;;;;;;5101245;28;20055;-45
2022/04/22 04:01:37;;;;;;;14.65;9.82;;;7.50;99.90;;;;;;5101738;28;20040;-42
2022/04/22 04:04:03;;;;;;;12.88;8.32;;;7.50;99.90;;;;;;5102847;28;20075;-45
2022/04/22 04:06:29;;;;;;;13.25;8.35;;;7.50;99.90;;;;;;5099654;28;20135;-43
2022/04/22 04:17:17;;;;;;;11.10;8.10;;;7.40;99.90;;;;;;5092257;28;20117;-42
2022/04/22 04:25:12;;;;;;;15.90;8.98;;;7.30;99.90;;;;;;5101894;28;20052;-43
2022/04/22 04:27:41;;;;;;;13.82;7.95;;;7.40;99.90;;;;;;5100989;28;20421;-45
2022/04/22 04:30:07;;;;;;;11.52;8.45;;;7.40;99.90;;;;;;5100752;28;20044;-41
2022/04/22 04:32:34;;;;;;;10.93;7.10;;;7.40;99.90;;;;;;5081206;28;20620;-43
2022/04/22 04:35:00;;;;;;;11.50;7.45;;;7.40;99.90;;;;;;5079147;28;20060;-42
2022/04/22 04:37:26;;;;;;;11.40;8.00;;;7.50;99.90;;;;;;5084931;28;20493;-45
2022/04/22 04:39:54;;;;;;;11.13;7.95;;;7.50;99.90;;;;;;5081624;28;20131;-41
2022/04/22 04:42:20;;;;;;;11.50;7.53;;;7.50;99.90;;;;;;5092582;28;20484;-43
2022/04/22 04:44:46;;;;;;;11.73;8.57;;;7.50;99.90;;;;;;5101519;28;20039;-42
2022/04/22 04:47:11;;;;;;;12.43;8.15;;;7.60;99.90;;;;;;5099768;28;20055;-44
2022/04/22 04:49:37;;;;;;;12.45;8.05;;;7.60;99.90;;;;;;5101476;28;20057;-44
2022/04/22 04:52:03;;;;;;;13.38;8.65;;;7.60;99.90;;;;;;5096672;28;20093;-44
2022/04/22 04:54:30;;;;;;;10.63;7.82;;;7.70;99.90;;;;;;5079317;28;20052;-43
2022/04/22 04:56:56;;;;;;;13.13;7.03;;;7.70;99.90;;;;;;5081495;28;20047;-43
2022/04/22 04:59:22;;;;;;;15.25;7.07;;;7.70;99.90;;;;;;5082042;28;20559;-43
2022/04/22 05:01:48;;;;;;;11.88;7.22;;;7.80;99.90;;;;;;5080241;28;20052;-43
2022/04/22 05:04:13;;;;;;;12.27;8.38;;;7.90;99.90;;;;;;5098167;28;20047;-45
2022/04/22 05:06:40;;;;;;;7.82;6.65;;;7.90;99.90;;;;;;5100643;28;20044;-43
2022/04/22 05:09:06;;;;;;;12.43;7.88;;;8.00;99.90;;;;;;5093726;28;20529;-43
2022/04/22 05:11:31;;;;;;;12.15;7.65;;;8.00;99.90;;;;;;5085725;28;20052;-42
2022/04/22 05:13:58;;;;;;;10.05;7.28;;;8.10;99.90;;;;;;5083202;28;20044;-46
2022/04/22 05:16:25;;;;;;;10.00;6.85;;;8.40;99.90;;;;;;5084218;28;20036;-42
2022/04/22 05:18:51;;;;;;;8.15;6.65;;;9.30;99.90;;;;;;5101644;28;20055;-48
2022/04/22 05:21:17;;;;;;;10.10;6.45;;;10.20;99.90;;;;;;5100783;28;20055;-43
2022/04/22 05:23:44;;;;;;;8.23;6.45;;;11.00;99.90;;;;;;5099634;28;20043;-42
2022/04/22 05:26:09;;;;;;;12.25;6.00;;;11.80;99.90;;;;;;5082365;28;20465;-45
2022/04/22 05:28:35;;;;;;;10.35;6.78;;;12.60;99.90;;;;;;5078950;28;20376;-43
2022/04/22 05:33:45;;;;;;;9.95;5.75;;;14.20;99.90;;;;;;5080269;28;20140;-43
2022/04/22 05:36:11;;;;;;;7.97;5.97;;;14.80;99.90;;;;;;5096892;28;20524;-45
2022/04/22 05:38:37;;;;;;;8.43;5.40;;;15.20;99.90;;;;;;5100231;28;20047;-43
2022/04/22 05:41:03;;;;;;;9.35;6.72;;;15.90;99.90;;;;;;5100279;28;20055;-45
2022/04/22 05:43:29;;;;;;;7.22;5.05;;;16.40;99.90;;;;;;5099273;28;20498;-44
2022/04/22 05:45:54;;;;;;;7.13;5.30;;;17.00;99.90;;;;;;5090515;28;20060;-43
2022/04/22 05:48:20;;;;;;;7.68;5.18;;;17.40;99.80;;;;;;5079646;28;20048;-45
2022/04/22 05:50:46;;;;;;;6.28;5.10;;;17.90;98.60;;;;;;5080288;28;20135;-44
2022/04/22 05:53:12;;;;;;;6.63;4.90;;;18.00;97.10;;;;;;5079049;28;20048;-45
2022/04/22 05:55:37;;;;;;;7.68;5.88;;;18.20;96.10;;;;;;5080428;28;20568;-42
2022/04/22 05:58:03;;;;;;;9.80;5.82;;;18.50;94.70;;;;;;5086992;28;20059;-45
2022/04/22 06:00:37;;;;;;;10.45;5.25;;;18.70;94.70;;;;;;5079321;28;20584;-46
2022/04/22 06:03:04;;;;;;;6.53;4.68;;;19.10;94.10;;;;;;5088087;28;20048;-45
2022/04/22 06:05:31;;;;;;;7.63;5.43;;;19.40;92.90;;;;;;5078401;28;20060;-44
2022/04/22 06:10:42;;;;;;;5.63;4.63;;;19.90;91.10;;;;;;5080148;28;20060;-44
2022/04/22 06:13:08;;;;;;;6.43;4.88;;;19.50;89.90;;;;;;5079163;28;20511;-44
2022/04/22 06:15:34;;;;;;;5.78;4.65;;;19.80;90.30;;;;;;5077497;28;20056;-44
2022/04/22 06:18:01;;;;;;;6.97;5.05;;;19.90;88.20;;;;;;5085344;28;20052;-45
2022/04/22 06:20:27;;;;;;;8.23;4.88;;;20.40;88.40;;;;;;5080529;28;20856;-47
2022/04/22 06:22:54;;;;;;;7.30;4.85;;;20.50;87.80;;;;;;5082378;28;20086;-45
2022/04/22 06:25:20;;;;;;;6.13;4.35;;;21.10;86.90;;;;;;5082791;28;20048;-43
2022/04/22 06:27:46;;;;;;;5.85;4.82;;;21.30;84.10;;;;;;5085536;28;20052;-43
2022/04/22 06:30:17;;;;;;;5.82;4.30;;;21.20;81.00;;;;;;5092058;28;20055;-46
2022/04/22 06:32:45;;;;;;;7.43;4.68;;;21.10;81.00;;;;;;5096889;28;20032;-45
2022/04/22 06:35:12;;;;;;;6.88;4.70;;;20.80;81.70;;;;;;5100600;28;20043;-44
2022/04/22 06:37:39;;;;;;;5.45;4.35;;;20.70;82.20;;;;;;5085863;28;20138;-43
2022/04/22 06:45:48;;;;;;;6.18;4.70;;;20.40;80.20;;;;;;5103874;28;20040;-44
2022/04/22 06:48:17;;;;;;;6.80;4.45;;;20.30;82.40;;;;;;5101857;28;20456;-46
2022/04/22 06:50:48;;;;;;;5.57;4.43;;;19.90;81.70;;;;;;5094494;28;20656;-44
2022/04/22 06:53:15;;;;;;;4.45;3.97;;;19.80;82.10;;;;;;5082006;28;20067;-44
2022/04/22 06:55:41;;;;;;;5.88;4.30;;;19.60;82.00;;;;;;5096752;28;20036;-45
2022/04/22 06:58:12;;;;;;;6.30;3.70;;;19.40;82.00;;;;;;5091469;28;20494;-46
2022/04/22 07:00:39;;;;;;;5.32;4.15;;;18.70;83.70;;;;;;5094072;28;20393;-43
2022/04/22 07:03:07;;;;;;;4.95;3.75;;;17.70;84.70;;;;;;5098006;28;20079;-45
2022/04/22 07:05:34;;;;;;;5.45;3.70;;;17.00;87.10;;;;;;5093090;28;20546;-44
2022/04/22 07:08:06;;;;;;;6.88;3.70;;;16.60;88.10;;;;;;5092003;28;20060;-45
2022/04/22 07:10:35;;;;;;;6.15;3.92;;;16.30;88.80;;;;;;5093826;28;20048;-43
2022/04/22 07:13:01;;;;;;;4.22;3.58;;;16.30;90.10;;;;;;5096673;28;20048;-45
2022/04/22 07:15:28;;;;;;;4.80;3.42;;;16.10;90.20;;;;;;5094126;28;20044;-43
2022/04/22 07:17:55;;;;;;;4.38;3.38;;;15.80;90.50;;;;;;5096110;28;20081;-43
2022/04/22 07:20:21;;;;;;;4.53;3.30;;;15.50;91.20;;;;;;5094079;28;20089;-44
2022/04/22 07:22:48;;;;;;;5.82;3.13;;;15.40;91.20;;;;;;5092686;28;20306;-43
2022/04/22 07:25:14;;;;;;;3.90;3.40;;;15.20;91.60;;;;;;5096989;28;20047;-44
2022/04/22 07:27:43;;;;;;;5.43;3.58;;;15.10;91.90;;;;;;5089575;28;20056;-45
2022/04/22 07:30:11;;;;;;;7.57;3.90;;;15.20;92.60;;;;;;5094233;28;20054;-43
2022/04/22 07:32:41;;;;;;;7.53;3.78;;;15.40;92.80;;;;;;5102239;28;20059;-44
2022/04/22 07:35:14;;;;;;;4.75;3.50;;;15.20;92.20;;;;;;5092059;28;20050;-44
2022/04/22 07:37:40;;;;;;;;;;;15.10;92.50;;;;;;5095885;28;20059;-44
2022/04/22 07:40:07;;;;;;;6.43;3.40;;;14.90;92.90;;;;;;5100377;28;19984;-45
2022/04/22 07:42:34;;;;;;;4.10;2.95;;;14.80;93.60;;;;;;5092012;28;20125;-46
2022/04/22 07:47:48;;;;;;;4.82;3.22;;;14.60;93.70;;;;;;5100059;28;20043;-43
2022/04/22 07:50:15;;;;;;;5.82;3.17;;;14.50;94.10;;;;;;5092813;28;20614;-45
2022/04/22 07:52:44;;;;;;;3.95;3.05;;;14.40;94.20;;;;;;5093598;28;20118;-44
2022/04/22 07:55:12;;;;;;;3.58;2.90;;;14.20;93.80;;;;;;5093161;27;20306;-45
2022/04/22 07:57:42;;;;;;;6.63;3.15;;;14.20;94.50;;;;;;5097503;28;20089;-44
2022/04/22 08:00:08;;;;;;;6.78;3.13;;;14.10;94.30;;;;;;5094789;28;20047;-44
2022/04/22 08:02:34;;;;;;;4.07;2.90;;;14.10;94.20;;;;;;5098078;28;20051;-44
2022/04/22 08:05:00;;;;;;;7.07;3.17;;;14.10;94.80;;;;;;5094311;28;20059;-46
2022/04/22 08:07:26;;;;;;;6.68;2.72;;;14.00;95.30;;;;;;5094101;28;20055;-43
2022/04/22 08:09:52;;;;;;;5.15;2.63;;;14.00;95.10;;;;;;5095587;27;20044;-44
2022/04/22 08:12:21;;;;;;;6.75;3.28;;;13.90;94.80;;;;;;5095315;28;20490;-45
2022/04/22 08:14:47;;;;;;;5.10;3.25;;;13.70;95.10;;;;;;5093226;28;20363;-44
2022/04/22 08:17:13;;;;;;;3.83;2.85;;;13.80;96.20;;;;;;5093513;28;20062;-45
2022/04/22 08:19:43;;;;;;;4.18;2.80;;;13.80;95.50;;;;;;5091529;28;20036;-44
2022/04/22 08:22:09;;;;;;;6.07;3.08;;;13.80;95.10;;;;;;5100735;28;20122;-44
2022/04/22 08:24:34;;;;;;;7.20;3.47;;;13.90;95.80;;;;;;5089797;28;20070;-43
2022/04/22 08:27:00;;;;;;;5.35;3.22;;;14.10;97.00;;;;;;5096487;28;20102;-43
2022/04/22 08:29:26;;;;;;;4.32;3.40;;;14.40;97.00;;;;;;5100558;28;20093;-43
2022/04/22 08:31:52;;;;;;;4.07;2.90;;;14.60;97.20;;;;;;5101318;28;20104;-43
2022/04/22 08:34:20;;;;;;;7.15;3.08;;;14.70;95.70;;;;;;5098793;28;20043;-45
2022/04/22 08:36:47;;;;;;;4.53;2.63;;;14.70;95.20;;;;;;5085310;28;20093;-46
2022/04/22 08:39:14;;;;;;;4.13;2.65;;;14.60;94.30;;;;;;5080051;28;20097;-45
2022/04/22 08:41:41;;;;;;;5.35;3.08;;;14.50;94.50;;;;;;5097558;28;20079;-44
2022/04/22 08:44:11;;;;;;;4.93;2.63;;;14.40;95.10;;;;;;5101879;27;20077;-46
2022/04/22 08:52:10;;;;;;;5.40;2.90;;;14.40;95.60;;;;;;5084488;28;20098;-44
2022/04/22 08:54:42;;;;;;;3.67;2.60;;;14.30;95.10;;;;;;5081347;28;20047;-43
2022/04/22 08:57:07;;;;;;;6.72;2.90;;;14.20;95.80;;;;;;5084947;28;20512;-44
2022/04/22 08:59:33;;;;;;;5.18;3.08;;;14.20;95.40;;;;;;5081745;28;20167;-44
2022/04/22 09:01:59;;;;;;;5.25;2.78;;;14.30;96.50;;;;;;5086285;28;20123;-44
2022/04/22 09:04:26;;;;;;;4.72;2.92;;;14.50;96.40;;;;;;5090799;28;20044;-43
2022/04/22 09:06:54;;;;;;;3.72;3.03;;;14.60;95.70;;;;;;5080403;28;20043;-45
2022/04/22 09:09:20;;;;;;;5.10;3.10;;;14.80;95.80;;;;;;5100475;27;20629;-45
2022/04/22 09:11:45;;;;;;;4.25;2.55;;;14.80;94.60;;;;;;5067014;28;20229;-44
2022/04/22 09:14:19;;;;;;;5.68;2.88;;;14.70;95.50;;;;;;5089114;28;20219;-45
2022/04/22 09:16:45;;;;;;;6.40;2.75;;;14.80;96.00;;;;;;5085752;28;20052;-45
2022/04/22 09:19:12;;;;;;;5.70;3.35;;;14.90;95.40;;;;;;5086494;28;20574;-44
2022/04/22 09:21:39;;;;;;;10.68;2.85;;;14.80;93.70;;;;;;5080073;28;20454;-45
2022/04/22 09:24:13;;;;;;;6.93;2.65;;;14.80;93.80;;;;;;5080280;28;20538;-49
2022/04/22 09:26:39;;;;;;;5.85;2.78;;;14.80;94.40;;;;;;5078564;28;20354;-44
2022/04/22 09:29:06;;;;;;;5.72;2.65;;;14.80;93.90;;;;;;5080018;28;20204;-46
2022/04/22 09:31:49;;;;;;;5.07;2.88;;;14.80;94.30;;;;;;5081530;28;20552;-44
2022/04/22 09:34:31;;;;;;;5.07;3.05;;;15.00;94.60;;;;;;5091297;28;20552;-46
2022/04/22 09:43:01;;;;;;;7.10;2.75;;;15.50;94.10;;;;;;5099974;28;20055;-43
2022/04/22 09:45:39;;;;;;;4.10;3.00;;;15.70;93.70;;;;;;5084656;28;20051;-43
2022/04/22 09:48:14;;;;;;;5.00;2.70;;;15.60;93.30;;;;;;5080221;28;20052;-44
2022/04/22 09:50:45;;;;;;;6.90;3.58;;;15.60;92.70;;;;;;5078316;28;20059;-47
2022/04/22 09:53:12;;;;;;;3.45;2.70;;;15.60;92.20;;;;;;5080200;28;20496;-44
2022/04/22 09:55:53;;;;;;;5.68;3.10;;;15.50;92.50;;;;;;5088713;28;20054;-44
2022/04/22 09:58:22;;;;;;;4.57;3.17;;;15.50;92.50;;;;;;5078158;28;20055;-44
2022/04/22 10:00:52;;;;;;;6.63;2.70;;;15.50;94.50;;;;;;5079486;28;20055;-44
2022/04/22 10:03:19;;;;;;;3.50;2.95;;;15.60;93.00;;;;;;5080578;28;20079;-44
2022/04/22 10:05:46;;;;;;;5.75;3.05;;;15.50;92.00;;;;;;5084439;28;20048;-44
2022/04/22 10:08:15;;;;;;;5.40;2.90;;;15.50;92.60;;;;;;5084315;28;20128;-45
2022/04/22 10:10:42;;;;;;;5.60;2.75;;;15.60;93.50;;;;;;5105106;27;20044;-46
2022/04/22 10:13:16;;;;;;;6.40;2.90;;;15.60;93.20;;;;;;5087672;28;20091;-46
2022/04/22 10:15:44;;;;;;;6.32;2.72;;;15.70;92.70;;;;;;5096392;28;20051;-45
2022/04/22 10:18:15;;;;;;;10.52;3.10;;;15.70;92.70;;;;;;5105728;28;20164;-47
2022/04/22 10:20:41;;;;;;;9.23;3.13;;;15.80;93.10;;;;;;5104465;28;20060;-45
2022/04/22 10:23:07;;;;;;;6.25;3.17;;;15.90;93.50;;;;;;5099284;28;20082;-47
2022/04/22 10:25:33;;;;;;;5.10;2.75;;;15.90;92.60;;;;;;5093405;28;20161;-46
2022/04/22 10:28:06;;;;;;;5.63;3.05;;;16.00;92.70;;;;;;5097256;28;20051;-45
2022/04/22 10:30:32;;;;;;;6.15;3.10;;;15.90;92.60;;;;;;5082948;28;20136;-47
2022/04/22 10:32:59;;;;;;;4.75;2.80;;;15.80;92.60;;;;;;5082589;28;20044;-47
2022/04/22 10:35:25;;;;;;;7.05;3.20;;;15.80;93.10;;;;;;5083721;28;20402;-45
2022/04/22 10:37:54;;;;;;;7.70;3.47;;;15.90;92.90;;;;;;5091797;28;20039;-46
2022/04/22 10:40:21;;;;;;;8.40;3.65;;;15.90;92.90;;;;;;5101941;28;20047;-48
2022/04/22 10:42:49;;;;;;;6.80;2.80;;;16.00;93.40;;;;;;5101909;28;20052;-44
2022/04/22 10:48:25;;;;;;;6.30;3.25;;;16.30;93.70;;;;;;5089143;28;20052;-46
2022/04/22 10:51:02;;;;;;;6.90;3.28;;;16.50;94.00;;;;;;5096018;27;20107;-46
2022/04/22 10:53:36;;;;;;;4.22;3.05;;;16.50;93.00;;;;;;5098799;28;20090;-46
2022/04/22 10:56:23;;;;;;;5.78;4.03;;;16.60;92.40;;;;;;5092445;28;20569;-47
2022/04/22 10:59:18;;;;;;;7.72;3.90;;;16.40;92.00;;;;;;5093925;28;20576;-45
2022/04/22 11:01:43;;;;;;;5.10;3.00;;;16.60;93.10;;;;;;5084046;28;20063;-49
2022/04/22 11:04:24;;;;;;;5.07;3.38;;;16.70;93.00;;;;;;5082343;28;20055;-46
2022/04/22 11:06:50;;;;;;;4.45;3.95;;;16.70;93.00;;;;;;5083699;28;20119;-46
2022/04/22 11:09:30;;;;;;;9.18;3.78;;;16.70;92.70;;;;;;5107131;27;20467;-44
2022/04/22 11:11:57;;;;;;;4.95;3.47;;;16.80;93.00;;;;;;5085095;27;20472;-46
2022/04/22 11:14:25;;;;;;;5.93;3.67;;;16.60;91.10;;;;;;5083476;28;20054;-45
2022/04/22 11:16:53;;;;;;;4.82;3.30;;;16.60;91.60;;;;;;5081586;28;20540;-46
2022/04/22 11:19:19;;;;;;;7.47;3.60;;;16.50;92.00;;;;;;5082053;28;20056;-44
2022/04/22 11:21:47;;;;;;;16.05;4.28;;;16.60;93.90;;;;;;5081342;28;20052;-43
2022/04/22 11:24:21;;;;;;;13.85;5.55;;;16.80;93.40;;;;;;5083517;28;20055;-45
2022/04/22 11:26:47;;;;;;;7.05;4.22;;;16.90;94.30;;;;;;5083788;28;20125;-45
2022/04/22 11:29:14;;;;;;;6.70;3.80;;;17.00;93.40;;;;;;5081875;28;20055;-45
2022/04/22 11:31:45;;;;;;;7.38;3.80;;;17.10;92.90;;;;;;5082689;28;20442;-46
2022/04/22 11:34:14;;;;;;;4.45;3.67;;;17.10;92.90;;;;;;5081843;28;20047;-43
2022/04/22 11:36:45;;;;;;;6.57;4.22;;;16.90;92.40;;;;;;5081846;28;20070;-45
2022/04/22 11:39:23;;;;;;;7.20;3.90;;;16.70;91.70;;;;;;5084419;28;20059;-44
2022/04/22 11:41:59;;;;;;;5.22;3.78;;;16.70;92.40;;;;;;5103137;28;20134;-48
2022/04/22 11:44:25;;;;;;;6.30;4.05;;;16.80;93.20;;;;;;5097433;28;20079;-46
2022/04/22 11:46:54;;;;;;;6.70;4.15;;;16.90;92.20;;;;;;5094463;28;20464;-50
2022/04/22 11:49:21;;;;;;;7.25;3.88;;;16.90;92.00;;;;;;5099399;28;20055;-45
2022/04/22 11:51:54;;;;;;;5.45;4.10;;;16.90;92.60;;;;;;5097627;28;20127;-46
2022/04/22 11:54:26;;;;;;;;;;;16.90;92.80;;;;;;5083190;28;20127;-44
2022/04/22 11:56:55;;;;;;;9.93;5.03;;;17.00;92.80;;;;;;5093854;28;19923;-48
2022/04/22 11:59:22;;;;;;;8.40;4.28;;;17.10;92.60;;;;;;5081445;28;20062;-45
2022/04/22 12:10:27;;;;;;;6.88;4.80;;;17.10;93.00;;;;;;5026707;28;20056;-43
2022/04/22 12:12:56;;;;;;;10.93;4.70;;;17.10;94.20;;;;;;5034069;28;20060;-44
2022/04/22 12:15:22;;;;;;;9.63;4.93;;;17.20;93.90;;;;;;5023014;28;20554;-43
2022/04/22 12:17:48;;;;;;;7.40;4.80;;;17.20;94.10;;;;;;5018798;28;20153;-46
2022/04/22 12:20:15;;;;;;;5.78;4.85;;;17.30;94.30;;;;;;5037782;28;20218;-45
2022/04/22 12:22:41;;;;;;;5.47;4.85;;;17.30;94.00;;;;;;5010479;28;20570;-44
2022/04/22 12:25:10;;;;;;;6.63;5.63;;;17.20;93.90;;;;;;5037659;28;20095;-45
2022/04/22 12:27:37;;;;;;;6.40;5.32;;;17.20;93.30;;;;;;5037449;28;20060;-45
2022/04/22 12:30:06;;;;;;;8.38;4.97;;;17.20;94.30;;;;;;5037541;28;20084;-46
2022/04/22 12:32:32;;;;;;;7.57;5.20;;;17.20;95.20;;;;;;5036946;28;20573;-45
2022/04/22 12:35:14;;;;;;;13.13;5.05;;;17.20;95.20;;;;;;5036268;28;20053;-44
2022/04/22 12:37:44;;;;;;;8.80;5.18;;;17.30;95.70;;;;;;5038489;28;20036;-44
2022/04/22 12:40:11;;;;;;;7.68;5.35;;;17.40;95.00;;;;;;5099144;28;20177;-44
2022/04/22 12:42:39;;;;;;;5.78;5.25;;;17.30;93.70;;;;;;5081339;28;20051;-45
2022/04/22 12:53:46;;;;;;;7.30;5.43;;;17.30;93.60;;;;;;5037058;28;20169;-44
2022/04/22 12:56:11;;;;;;;7.03;5.43;;;17.30;93.50;;;;;;5009367;28;20081;-45
2022/04/22 12:58:55;;;;;;;7.10;5.75;;;17.40;93.50;;;;;;5017939;28;20286;-45
2022/04/22 13:01:45;;;;;;;8.98;4.95;;;17.40;94.00;;;;;;5017898;28;20137;-45
2022/04/22 13:04:25;;;;;;;6.15;4.95;;;17.50;93.10;;;;;;5020189;28;20065;-46
2022/04/22 13:06:51;;;;;;;6.68;4.90;;;17.60;92.40;;;;;;5021680;28;20057;-48
2022/04/22 13:09:19;;;;;;;8.32;5.47;;;17.60;92.90;;;;;;5019031;28;20890;-48
2022/04/22 13:11:46;;;;;;;6.68;5.22;;;17.80;93.40;;;;;;5016890;28;20053;-48
2022/04/22 13:14:12;;;;;;;7.25;4.88;;;17.80;93.10;;;;;;5000971;28;20493;-44
2022/04/22 13:16:38;;;;;;;10.18;5.20;;;17.70;92.70;;;;;;5023684;28;20064;-46
2022/04/22 13:19:05;;;;;;;8.55;5.72;;;17.80;93.00;;;;;;5023810;28;20464;-46
2022/04/22 13:21:30;;;;;;;6.43;5.15;;;17.80;92.40;;;;;;5036294;28;20053;-46
2022/04/22 13:23:56;;;;;;;9.18;5.78;;;17.80;92.90;;;;;;5037584;28;20048;-44
2022/04/22 13:26:23;;;;;;;8.07;6.15;;;17.80;92.60;;;;;;5099468;28;20047;-45
2022/04/22 13:28:50;;;;;;;9.27;5.55;;;17.80;92.50;;;;;;5099816;28;20113;-44
2022/04/22 13:31:16;;;;;;;6.63;5.65;;;17.80;92.60;;;;;;5099368;28;20053;-44
2022/04/22 13:33:42;;;;;;;7.13;5.53;;;17.90;92.70;;;;;;5098372;28;20206;-49
2022/04/22 13:36:10;;;;;;;11.43;5.78;;;17.90;93.10;;;;;;5100037;28;20048;-47
2022/04/22 13:38:37;;;;;;;9.00;6.10;;;18.00;93.50;;;;;;5083929;28;20047;-45
2022/04/22 13:41:05;;;;;;;11.50;6.80;;;17.90;92.60;;;;;;5078817;28;20103;-46
2022/04/22 13:43:31;;;;;;;7.85;5.55;;;17.90;92.10;;;;;;5080568;28;20051;-44
2022/04/22 13:54:18;;;;;;;7.85;6.30;;;17.90;94.80;;;;;;5087571;28;20044;-45
2022/04/22 13:56:44;;;;;;;7.45;6.35;;;18.00;93.90;;;;;;5086917;28;20047;-46
2022/04/22 13:59:10;;;;;;;10.25;6.57;;;18.10;94.20;;;;;;5090520;28;20040;-45
2022/04/22 14:01:37;;;;;;;10.55;6.63;;;18.20;93.90;;;;;;5079103;28;20105;-44
2022/04/22 14:04:03;;;;;;;7.68;6.55;;;18.20;94.10;;;;;;5080089;28;20047;-43
2022/04/22 14:06:29;;;;;;;13.38;6.60;;;18.10;94.00;;;;;;5079886;28;20040;-44
2022/04/22 14:08:55;;;;;;;10.15;6.78;;;18.00;93.60;;;;;;5086360;28;20051;-44
2022/04/22 14:11:21;;;;;;;8.50;6.90;;;17.90;94.00;;;;;;5080797;28;20052;-45
2022/04/22 14:13:46;;;;;;;9.82;6.65;;;17.90;93.50;;;;;;5093650;28;20577;-43